Time;durP1;ratioP1;P1;durP2;ratioP2;P2;SDS_P1;SDS_P2;PMS_P1;PMS_P2;Temp;Humidity;BMP_temperature;BMP_pressure;BME280_temperature;BME280_humidity;BME280_pressure;Samples;Min_cycle;Max_cycle;Signal;HPM_P1;HPM_P2
2021/12/18 05:01:38;;;;;;;1.85;1.85;;;7.50;99.90;;;;;;5427081;23;20236;-69
2021/12/18 05:04:08;;;;;;;2.38;2.13;;;7.60;99.90;;;;;;4937634;29;20262;-70
2021/12/18 05:06:36;;;;;;;2.58;2.20;;;7.60;99.90;;;;;;4955917;29;20216;-70
2021/12/18 05:09:03;;;;;;;1.60;1.50;;;7.60;99.90;;;;;;4947308;29;20202;-69
2021/12/18 05:11:30;;;;;;;1.38;1.27;;;7.60;99.90;;;;;;4937153;29;20236;-70
2021/12/18 05:13:57;;;;;;;1.63;1.52;;;7.60;99.90;;;;;;4954864;29;20630;-70
2021/12/18 05:16:27;;;;;;;1.30;1.20;;;7.60;99.90;;;;;;4955688;29;20206;-70
2021/12/18 05:18:55;;;;;;;1.00;1.00;;;7.60;99.90;;;;;;4944186;29;20209;-69
2021/12/18 05:21:21;;;;;;;1.58;1.48;;;7.60;99.90;;;;;;4954465;29;20221;-69
2021/12/18 05:23:50;;;;;;;1.67;1.58;;;7.60;99.90;;;;;;4956907;28;20267;-68
2021/12/18 05:26:17;;;;;;;3.45;1.25;;;7.60;99.90;;;;;;4947248;29;20252;-70
2021/12/18 05:28:43;;;;;;;1.48;1.38;;;7.60;99.90;;;;;;4940079;29;20245;-69
2021/12/18 05:31:13;;;;;;;3.15;1.77;;;7.60;99.90;;;;;;4944003;29;20280;-70
2021/12/18 05:33:40;;;;;;;2.33;2.13;;;7.70;99.90;;;;;;4956718;29;20201;-70
2021/12/18 05:36:29;;;;;;;1.75;1.67;;;7.60;99.90;;;;;;4952264;28;21577;-69
2021/12/18 05:38:59;;;;;;;1.08;1.08;;;7.70;99.90;;;;;;4956795;29;20212;-70
2021/12/18 05:41:28;;;;;;;2.10;1.60;;;7.70;99.90;;;;;;4946812;28;20284;-70
2021/12/18 05:43:55;;;;;;;1.45;1.45;;;7.70;99.90;;;;;;4957408;29;20213;-70
2021/12/18 05:46:22;;;;;;;1.38;1.38;;;7.70;99.90;;;;;;4956128;29;20260;-70
2021/12/18 05:48:49;;;;;;;1.52;1.42;;;7.70;99.90;;;;;;4954874;28;20217;-70
2021/12/18 05:51:17;;;;;;;2.20;1.80;;;7.70;99.90;;;;;;4954990;29;20283;-69
2021/12/18 05:53:44;;;;;;;2.00;1.90;;;7.70;99.90;;;;;;4948278;29;20216;-69
2021/12/18 05:56:12;;;;;;;2.42;1.88;;;7.70;99.90;;;;;;4955702;29;20297;-69
2021/12/18 05:58:44;;;;;;;2.22;1.85;;;7.70;99.90;;;;;;4954957;28;20209;-69
2021/12/18 06:01:12;;;;;;;1.30;1.30;;;7.70;99.90;;;;;;4949170;28;20336;-69
2021/12/18 06:03:38;;;;;;;1.20;1.10;;;7.70;99.90;;;;;;4954965;29;20209;-69
2021/12/18 06:06:05;;;;;;;2.20;1.98;;;7.70;99.90;;;;;;4952013;29;20201;-69
2021/12/18 06:08:35;;;;;;;2.42;2.08;;;7.70;99.90;;;;;;4954101;29;20208;-69
2021/12/18 06:11:07;;;;;;;1.50;1.50;;;7.70;99.90;;;;;;4944998;29;20230;-70
2021/12/18 06:13:34;;;;;;;1.83;1.73;;;7.70;99.90;;;;;;4953430;29;20221;-68
2021/12/18 06:16:01;;;;;;;1.20;1.20;;;7.80;99.90;;;;;;4954762;29;20229;-69
2021/12/18 06:18:28;;;;;;;1.70;1.60;;;7.70;99.90;;;;;;4954121;29;20202;-69
2021/12/18 06:20:54;;;;;;;1.98;1.58;;;7.70;99.90;;;;;;4954137;28;20640;-69
2021/12/18 06:23:21;;;;;;;2.20;1.50;;;7.70;99.90;;;;;;4950394;29;20970;-70
2021/12/18 06:25:49;;;;;;;2.28;1.65;;;7.70;99.90;;;;;;4954850;28;20209;-70
2021/12/18 06:28:16;;;;;;;2.08;1.85;;;7.70;99.90;;;;;;4945265;29;20279;-70
2021/12/18 06:30:43;;;;;;;1.70;1.60;;;7.80;99.90;;;;;;4941898;29;20226;-70
2021/12/18 06:33:10;;;;;;;1.60;1.50;;;7.80;99.90;;;;;;4951714;29;20217;-69
2021/12/18 06:35:36;;;;;;;1.30;1.20;;;7.80;99.90;;;;;;4942776;29;20594;-68
2021/12/18 06:38:04;;;;;;;1.77;1.67;;;7.80;99.90;;;;;;4947098;29;20616;-69
2021/12/18 06:40:30;;;;;;;1.60;1.50;;;7.80;99.90;;;;;;4954020;28;20229;-69
2021/12/18 06:42:58;;;;;;;1.58;1.50;;;7.80;99.90;;;;;;4944155;29;20253;-68
2021/12/18 06:45:25;;;;;;;1.52;1.42;;;7.80;99.90;;;;;;4944706;29;20201;-68
2021/12/18 06:47:52;;;;;;;2.28;1.98;;;7.80;99.90;;;;;;4937555;29;20249;-69
2021/12/18 06:50:22;;;;;;;2.38;2.17;;;7.80;99.90;;;;;;4954564;29;20229;-69
2021/12/18 06:52:49;;;;;;;2.28;2.20;;;7.80;99.90;;;;;;4957104;29;20205;-69
2021/12/18 06:55:16;;;;;;;1.80;1.70;;;7.80;99.90;;;;;;4956893;29;20229;-69
2021/12/18 06:57:43;;;;;;;1.67;1.58;;;7.80;99.90;;;;;;4953918;29;20668;-68
2021/12/18 07:00:14;;;;;;;1.40;1.40;;;7.80;99.90;;;;;;4953449;29;20201;-69
2021/12/18 07:02:41;;;;;;;2.50;1.55;;;7.80;99.90;;;;;;4953943;28;20288;-70
2021/12/18 07:05:09;;;;;;;1.98;1.88;;;7.80;99.90;;;;;;4953773;29;20198;-69
2021/12/18 07:07:36;;;;;;;3.58;1.85;;;7.80;99.90;;;;;;4934850;29;20667;-70
2021/12/18 07:10:03;;;;;;;2.88;2.58;;;7.80;99.90;;;;;;4950304;28;20573;-69
2021/12/18 07:12:30;;;;;;;1.88;1.85;;;7.80;99.90;;;;;;4952678;29;20578;-69
2021/12/18 07:14:57;;;;;;;3.28;2.30;;;7.80;99.90;;;;;;4949489;29;20225;-70
2021/12/18 07:17:25;;;;;;;2.30;2.20;;;7.80;99.90;;;;;;4949448;28;20223;-69
2021/12/18 07:19:51;;;;;;;2.13;1.92;;;7.80;99.90;;;;;;4947807;29;20350;-69
2021/12/18 07:22:18;;;;;;;2.08;1.83;;;7.70;99.90;;;;;;4952933;28;20225;-70
2021/12/18 07:24:45;;;;;;;1.40;1.30;;;7.80;99.90;;;;;;4953808;29;20205;-69
2021/12/18 07:27:11;;;;;;;3.78;1.80;;;7.80;99.90;;;;;;4950928;29;20858;-70
2021/12/18 07:29:38;;;;;;;2.00;1.90;;;7.80;99.90;;;;;;4953463;29;20661;-69
2021/12/18 07:32:05;;;;;;;2.25;2.10;;;7.80;99.90;;;;;;4952597;28;20280;-71
2021/12/18 07:34:33;;;;;;;5.40;2.40;;;7.80;99.90;;;;;;4953491;29;20206;-67
2021/12/18 07:37:00;;;;;;;3.58;3.28;;;7.70;99.90;;;;;;4952676;29;21016;-70
2021/12/18 07:39:27;;;;;;;3.40;2.20;;;7.70;99.90;;;;;;4953613;29;20217;-71
2021/12/18 07:41:53;;;;;;;3.55;2.08;;;7.80;99.90;;;;;;4951519;29;20367;-68
2021/12/18 07:44:20;;;;;;;3.17;2.88;;;7.70;99.90;;;;;;4952856;29;20153;-70
2021/12/18 07:46:47;;;;;;;2.95;2.50;;;7.70;99.90;;;;;;4946915;29;20639;-70
2021/12/18 07:49:14;;;;;;;2.90;2.60;;;7.70;99.90;;;;;;4935524;29;20206;-70
2021/12/18 07:51:42;;;;;;;4.03;2.20;;;7.70;99.90;;;;;;4939783;29;20225;-70
2021/12/18 07:54:09;;;;;;;2.03;1.50;;;7.70;99.90;;;;;;4951753;29;20278;-70
2021/12/18 07:56:36;;;;;;;1.30;1.20;;;7.70;99.90;;;;;;4946419;29;20247;-71
2021/12/18 07:59:04;;;;;;;1.13;1.13;;;7.70;99.90;;;;;;4933796;29;20220;-69
2021/12/18 08:01:31;;;;;;;1.60;1.48;;;7.70;99.90;;;;;;4947256;28;20768;-69
2021/12/18 08:03:57;;;;;;;1.30;0.77;;;7.70;99.90;;;;;;4945638;29;20204;-69
2021/12/18 08:06:24;;;;;;;0.85;0.85;;;7.70;99.90;;;;;;4944040;29;20294;-69
2021/12/18 08:08:52;;;;;;;0.65;0.65;;;7.70;99.90;;;;;;4944610;29;20213;-69
2021/12/18 08:11:19;;;;;;;1.40;0.30;;;7.70;99.90;;;;;;4947316;29;20221;-69
2021/12/18 08:13:45;;;;;;;0.40;0.40;;;7.70;99.90;;;;;;4949059;29;20264;-69
2021/12/18 08:16:12;;;;;;;0.30;0.30;;;7.70;99.90;;;;;;4949082;29;20221;-69
2021/12/18 08:18:39;;;;;;;0.30;0.30;;;7.60;99.90;;;;;;4950244;29;20721;-69
2021/12/18 08:21:05;;;;;;;0.30;0.30;;;7.60;99.90;;;;;;4950912;28;20340;-69
2021/12/18 08:23:32;;;;;;;0.55;0.55;;;7.60;99.90;;;;;;4943696;29;20205;-69
2021/12/18 08:26:00;;;;;;;0.50;0.50;;;7.60;99.90;;;;;;4950014;29;20204;-69
2021/12/18 08:28:27;;;;;;;0.40;0.40;;;7.60;99.90;;;;;;4949021;29;20212;-69
2021/12/18 08:30:53;;;;;;;0.30;0.30;;;7.50;99.90;;;;;;4951613;29;20291;-69
2021/12/18 08:33:21;;;;;;;1.25;0.40;;;7.60;99.90;;;;;;4950791;29;20848;-69
2021/12/18 08:35:48;;;;;;;0.43;0.30;;;7.60;99.90;;;;;;4951913;29;20272;-69
2021/12/18 08:38:14;;;;;;;0.50;0.50;;;7.60;99.90;;;;;;4950845;29;20675;-69
2021/12/18 08:40:42;;;;;;;0.63;0.60;;;7.60;99.90;;;;;;4951336;29;20235;-69
2021/12/18 08:43:10;;;;;;;1.00;0.40;;;7.60;99.90;;;;;;4947876;29;20239;-69
2021/12/18 08:45:37;;;;;;;0.70;0.70;;;7.60;99.90;;;;;;4933207;29;20213;-69
2021/12/18 08:48:05;;;;;;;0.50;0.50;;;7.60;99.90;;;;;;4937921;29;20594;-69
2021/12/18 08:50:32;;;;;;;0.80;0.80;;;7.70;99.90;;;;;;4950308;29;20217;-69
2021/12/18 08:52:58;;;;;;;0.98;0.47;;;7.70;99.90;;;;;;4951286;29;20287;-69
2021/12/18 08:55:25;;;;;;;0.95;0.70;;;7.70;99.90;;;;;;4951568;29;20225;-69
2021/12/18 08:57:52;;;;;;;0.50;0.50;;;7.70;99.90;;;;;;4945480;29;20210;-69
2021/12/18 09:00:23;;;;;;;0.68;0.68;;;7.70;99.90;;;;;;4951056;28;20217;-69
2021/12/18 09:02:53;;;;;;;0.60;0.60;;;7.70;99.90;;;;;;4949877;28;20697;-69
2021/12/18 09:05:20;;;;;;;0.65;0.65;;;7.70;99.90;;;;;;4950206;29;20197;-69
2021/12/18 09:07:46;;;;;;;0.80;0.80;;;7.70;99.90;;;;;;4947672;29;20280;-69
2021/12/18 09:10:14;;;;;;;1.23;0.65;;;7.70;99.90;;;;;;4951545;28;20556;-69
2021/12/18 09:12:41;;;;;;;0.90;0.63;;;7.80;99.90;;;;;;4941273;29;20216;-69
2021/12/18 09:15:09;;;;;;;0.95;0.60;;;7.80;99.90;;;;;;4951847;28;20232;-69
2021/12/18 09:17:37;;;;;;;0.60;0.60;;;7.80;99.90;;;;;;4938333;28;20574;-69
2021/12/18 09:20:04;;;;;;;1.35;0.60;;;7.80;99.90;;;;;;4932653;29;20269;-69
2021/12/18 09:22:31;;;;;;;1.02;1.02;;;7.90;99.90;;;;;;4934827;29;20231;-69
2021/12/18 09:24:59;;;;;;;0.98;0.98;;;7.90;99.90;;;;;;4936467;29;20201;-69
2021/12/18 09:27:26;;;;;;;0.93;0.93;;;7.90;99.90;;;;;;4950230;29;20205;-69
2021/12/18 09:29:52;;;;;;;0.70;0.70;;;8.00;99.90;;;;;;4951178;28;20271;-69
2021/12/18 09:32:19;;;;;;;1.30;0.95;;;8.00;99.90;;;;;;4945212;28;20222;-69
2021/12/18 09:34:47;;;;;;;1.52;1.52;;;8.00;99.90;;;;;;4935811;29;20209;-69
2021/12/18 09:37:14;;;;;;;0.68;0.68;;;8.00;99.90;;;;;;4954160;29;20284;-69
2021/12/18 09:39:40;;;;;;;0.68;0.68;;;8.00;99.90;;;;;;4954890;29;20567;-69
2021/12/18 09:42:07;;;;;;;1.10;1.00;;;8.00;99.90;;;;;;4947506;29;20229;-69
2021/12/18 09:44:35;;;;;;;1.05;1.05;;;8.10;99.90;;;;;;4954453;29;20205;-69
2021/12/18 09:47:04;;;;;;;1.15;1.15;;;8.10;99.90;;;;;;4949590;29;20273;-69
2021/12/18 09:49:31;;;;;;;0.77;0.77;;;8.10;99.90;;;;;;4954702;28;20263;-69
2021/12/18 09:52:00;;;;;;;0.90;0.90;;;8.10;99.90;;;;;;4954845;28;20300;-68
2021/12/18 09:54:27;;;;;;;2.58;1.50;;;8.10;99.90;;;;;;4954821;29;20265;-69
2021/12/18 09:56:54;;;;;;;1.63;1.60;;;8.20;99.90;;;;;;4944680;29;20222;-69
2021/12/18 09:59:21;;;;;;;1.65;1.55;;;8.20;99.90;;;;;;4947980;29;20209;-69
2021/12/18 10:01:48;;;;;;;1.60;1.50;;;8.20;99.90;;;;;;4952737;28;20229;-69
2021/12/18 10:04:28;;;;;;;1.38;1.08;;;8.20;99.90;;;;;;4953008;28;20205;-69
2021/12/18 10:06:55;;;;;;;1.02;1.02;;;8.20;99.90;;;;;;4939898;29;20568;-69
2021/12/18 10:09:37;;;;;;;1.50;0.90;;;8.20;99.90;;;;;;4952601;29;20210;-68
2021/12/18 10:12:14;;;;;;;0.88;0.88;;;8.20;99.90;;;;;;4942584;28;20367;-68
2021/12/18 10:14:43;;;;;;;0.68;0.68;;;8.20;99.90;;;;;;4945662;29;20301;-68
2021/12/18 10:17:21;;;;;;;6.28;1.02;;;8.30;99.90;;;;;;4953053;28;20276;-66
2021/12/18 10:19:49;;;;;;;0.50;0.50;;;8.30;99.90;;;;;;4952002;29;20213;-68
2021/12/18 10:22:16;;;;;;;0.52;0.52;;;8.40;99.90;;;;;;4941640;29;20229;-68
2021/12/18 10:24:46;;;;;;;0.60;0.60;;;8.40;99.90;;;;;;4952731;29;20213;-67
2021/12/18 10:27:18;;;;;;;0.65;0.65;;;8.40;99.90;;;;;;4953660;29;20256;-67
2021/12/18 10:29:45;;;;;;;0.80;0.80;;;8.40;99.90;;;;;;4939334;28;20210;-68
2021/12/18 10:32:14;;;;;;;1.20;0.65;;;8.40;99.90;;;;;;4950497;28;20229;-68
2021/12/18 10:34:42;;;;;;;0.80;0.80;;;8.40;99.90;;;;;;4949826;29;20252;-68
2021/12/18 10:37:14;;;;;;;0.77;0.77;;;8.40;99.90;;;;;;4953981;28;20284;-68
2021/12/18 10:39:45;;;;;;;0.45;0.45;;;8.30;99.90;;;;;;4953248;29;21039;-68
2021/12/18 10:42:24;;;;;;;1.45;1.20;;;8.30;99.90;;;;;;4947361;28;20217;-68
2021/12/18 10:45:16;;;;;;;0.95;0.70;;;8.20;99.90;;;;;;4949182;28;20244;-69
2021/12/18 10:47:55;;;;;;;0.65;0.65;;;8.20;99.90;;;;;;4953319;29;20272;-68
2021/12/18 10:50:36;;;;;;;0.93;0.90;;;8.10;99.90;;;;;;4954139;29;20646;-69
2021/12/18 10:53:06;;;;;;;0.50;0.50;;;8.20;99.90;;;;;;4953799;29;20303;-69
2021/12/18 10:55:38;;;;;;;0.57;0.57;;;8.10;99.90;;;;;;4953899;28;20757;-69
2021/12/18 10:58:06;;;;;;;0.75;0.75;;;8.10;99.90;;;;;;4953199;28;20209;-69
2021/12/18 11:00:37;;;;;;;0.50;0.50;;;8.20;99.90;;;;;;4953533;29;20237;-69
2021/12/18 11:03:25;;;;;;;0.40;0.40;;;8.20;99.90;;;;;;4953670;29;20217;-68
2021/12/18 11:06:13;;;;;;;0.68;0.68;;;8.20;99.90;;;;;;4946276;28;20260;-68
2021/12/18 11:08:53;;;;;;;0.50;0.50;;;8.20;99.90;;;;;;4946145;29;20205;-68
2021/12/18 11:14:09;;;;;;;0.75;0.75;;;8.30;99.90;;;;;;4953769;29;20207;-69
2021/12/18 11:16:38;;;;;;;1.60;1.00;;;8.20;99.90;;;;;;4954584;28;20229;-69
2021/12/18 11:19:05;;;;;;;0.90;0.90;;;8.20;99.90;;;;;;4954707;29;20205;-69
2021/12/18 11:21:33;;;;;;;0.95;0.95;;;8.20;99.90;;;;;;4954027;28;20252;-69
2021/12/18 11:24:04;;;;;;;1.10;1.10;;;8.20;99.90;;;;;;4954336;29;20209;-69
2021/12/18 11:26:41;;;;;;;1.30;1.20;;;8.30;99.90;;;;;;4954129;29;20686;-69
2021/12/18 11:29:13;;;;;;;1.27;1.27;;;8.30;99.90;;;;;;4953542;29;20299;-69
2021/12/18 11:31:41;;;;;;;1.30;1.30;;;8.30;99.90;;;;;;4953664;28;20237;-69
2021/12/18 11:34:07;;;;;;;2.20;2.10;;;8.30;99.90;;;;;;4954179;28;20205;-69
2021/12/18 11:36:38;;;;;;;2.20;2.10;;;8.30;99.90;;;;;;4952602;28;20295;-69
2021/12/18 11:39:04;;;;;;;2.13;2.00;;;8.30;99.90;;;;;;4953840;29;20303;-69
2021/12/18 11:41:33;;;;;;;2.45;2.35;;;8.30;99.90;;;;;;4952438;28;20718;-69
2021/12/18 11:43:59;;;;;;;4.00;2.45;;;8.30;99.90;;;;;;4952652;28;20268;-69
2021/12/18 11:46:37;;;;;;;4.15;2.90;;;8.30;99.90;;;;;;4953362;29;20244;-69
2021/12/18 11:49:06;;;;;;;4.32;2.90;;;8.40;99.90;;;;;;4953245;28;20216;-69
2021/12/18 11:51:34;;;;;;;5.97;3.30;;;8.30;99.90;;;;;;4953214;29;20233;-70
2021/12/18 11:54:03;;;;;;;11.75;4.25;;;8.40;99.90;;;;;;4953104;29;20260;-69
2021/12/18 11:56:48;;;;;;;6.03;3.60;;;8.40;99.90;;;;;;4952359;28;20645;-69
2021/12/18 11:59:15;;;;;;;7.70;4.63;;;8.40;99.90;;;;;;4954476;28;20294;-69
2021/12/18 12:01:45;;;;;;;4.50;3.95;;;8.40;99.90;;;;;;4952288;29;20249;-68
2021/12/18 12:04:12;;;;;;;8.27;4.40;;;8.40;99.90;;;;;;4952874;29;20213;-69
2021/12/18 12:06:41;;;;;;;5.93;4.85;;;8.40;99.90;;;;;;4952509;28;20206;-69
2021/12/18 12:09:29;;;;;;;7.80;4.70;;;8.40;99.90;;;;;;4952449;29;20552;-69
2021/12/18 12:12:01;;;;;;;5.90;5.35;;;8.40;99.90;;;;;;4951464;29;20264;-69
2021/12/18 12:14:29;;;;;;;12.95;5.93;;;8.50;99.90;;;;;;4952693;28;20732;-69
2021/12/18 12:17:17;;;;;;;10.63;6.18;;;8.50;99.90;;;;;;4952218;29;20643;-69
2021/12/18 12:19:54;;;;;;;14.73;5.95;;;8.50;99.90;;;;;;4952808;29;20270;-69
2021/12/18 12:22:42;;;;;;;6.85;5.25;;;8.50;99.90;;;;;;4952279;28;20236;-68
2021/12/18 12:25:12;;;;;;;7.07;4.88;;;8.50;99.90;;;;;;4952707;28;20244;-68
2021/12/18 12:27:42;;;;;;;7.15;5.00;;;8.50;99.90;;;;;;4944737;29;20202;-69
2021/12/18 12:30:13;;;;;;;9.30;4.88;;;8.50;99.90;;;;;;4952178;29;20296;-68
2021/12/18 12:32:39;;;;;;;15.13;4.65;;;8.60;99.90;;;;;;4952256;28;20284;-68
2021/12/18 12:35:09;;;;;;;6.32;4.30;;;8.50;99.90;;;;;;4952237;29;20260;-69
2021/12/18 12:37:38;;;;;;;7.97;5.05;;;8.50;99.90;;;;;;4951984;28;20324;-68
2021/12/18 12:40:09;;;;;;;19.85;5.30;;;8.60;99.90;;;;;;4951980;29;20775;-68
2021/12/18 12:42:38;;;;;;;8.90;4.35;;;8.60;99.90;;;;;;4951315;28;20276;-68
2021/12/18 12:45:11;;;;;;;5.38;4.05;;;8.60;99.90;;;;;;4952074;29;20577;-68
2021/12/18 12:47:39;;;;;;;5.05;4.50;;;8.60;99.90;;;;;;4952081;29;20281;-68
2021/12/18 12:50:26;;;;;;;9.15;4.93;;;8.70;99.90;;;;;;4951852;29;20678;-68
2021/12/18 12:52:54;;;;;;;23.13;5.82;;;8.70;99.90;;;;;;4951977;29;20213;-69
2021/12/18 12:55:23;;;;;;;12.45;4.80;;;8.70;99.90;;;;;;4952124;29;20240;-68
2021/12/18 12:57:55;;;;;;;12.10;4.63;;;8.70;99.90;;;;;;4951301;29;20276;-68
2021/12/18 13:00:52;;;;;;;9.88;4.78;;;8.70;99.90;;;;;;4951782;28;20288;-68
2021/12/18 13:03:31;;;;;;;9.43;4.93;;;8.70;99.90;;;;;;4951695;29;20666;-69
2021/12/18 13:06:10;;;;;;;9.70;5.28;;;8.80;99.90;;;;;;4944573;29;20205;-68
2021/12/18 13:08:39;;;;;;;6.35;5.55;;;8.80;99.90;;;;;;4946809;29;20209;-68
2021/12/18 13:11:07;;;;;;;9.07;4.80;;;8.80;99.90;;;;;;4955449;29;20240;-68
2021/12/18 13:13:35;;;;;;;12.48;5.78;;;8.80;99.90;;;;;;4954521;29;20232;-68
2021/12/18 13:16:09;;;;;;;13.15;7.28;;;8.80;99.90;;;;;;4955804;28;20213;-69
2021/12/18 13:18:39;;;;;;;13.43;6.05;;;8.80;99.90;;;;;;4955614;28;20303;-68
2021/12/18 13:21:09;;;;;;;11.05;5.93;;;8.80;99.90;;;;;;4955640;29;20232;-68
2021/12/18 13:23:45;;;;;;;13.77;7.15;;;8.80;99.90;;;;;;4955615;28;20370;-68
2021/12/18 13:26:14;;;;;;;14.10;5.93;;;8.90;99.90;;;;;;4955378;29;20570;-68
2021/12/18 13:28:54;;;;;;;12.68;5.72;;;8.90;99.90;;;;;;4954654;29;20216;-68
2021/12/18 13:31:24;;;;;;;17.23;7.00;;;8.90;99.90;;;;;;4955155;29;20252;-68
2021/12/18 13:34:00;;;;;;;16.58;6.00;;;8.90;99.90;;;;;;4955341;29;20264;-68
2021/12/18 13:36:45;;;;;;;12.25;6.63;;;9.00;99.90;;;;;;4955363;29;20558;-68
2021/12/18 13:39:14;;;;;;;13.43;7.68;;;9.00;99.90;;;;;;4955282;29;20678;-69
2021/12/18 13:41:56;;;;;;;7.20;5.70;;;9.00;99.90;;;;;;4954522;28;20229;-69
2021/12/18 13:44:23;;;;;;;6.93;6.32;;;9.00;99.90;;;;;;4955110;29;20224;-68
2021/12/18 13:46:51;;;;;;;12.70;6.38;;;9.00;99.90;;;;;;4954678;29;20347;-68
2021/12/18 13:49:18;;;;;;;12.07;6.63;;;9.10;99.90;;;;;;4955398;29;20209;-68
2021/12/18 13:51:44;;;;;;;14.70;6.65;;;9.10;99.90;;;;;;4954475;28;20232;-69
2021/12/18 13:54:11;;;;;;;10.10;8.82;;;9.10;99.90;;;;;;4951685;29;20575;-69
2021/12/18 13:56:45;;;;;;;11.50;6.95;;;9.10;99.90;;;;;;4946679;29;20225;-69
2021/12/18 13:59:14;;;;;;;11.10;7.32;;;9.10;99.90;;;;;;4954771;29;20213;-69
2021/12/18 14:01:40;;;;;;;12.52;6.50;;;9.10;99.90;;;;;;4954463;28;20245;-68
2021/12/18 14:04:15;;;;;;;12.70;7.32;;;9.10;99.90;;;;;;4954608;29;20213;-68
2021/12/18 14:06:43;;;;;;;15.70;7.22;;;9.10;99.90;;;;;;4954496;29;20268;-68
2021/12/18 14:09:16;;;;;;;14.02;6.28;;;9.10;99.90;;;;;;4955219;29;20217;-68
2021/12/18 14:11:50;;;;;;;8.82;7.22;;;9.10;99.90;;;;;;4954139;28;20231;-69
2021/12/18 14:14:17;;;;;;;12.57;6.80;;;9.10;99.90;;;;;;4954935;28;20258;-68
2021/12/18 14:16:50;;;;;;;12.80;6.55;;;9.10;99.90;;;;;;4954547;29;20598;-68
2021/12/18 14:19:27;;;;;;;10.93;6.10;;;9.00;99.90;;;;;;4954211;28;20220;-68
2021/12/18 14:21:54;;;;;;;12.52;6.75;;;9.00;99.90;;;;;;4958086;29;20263;-68
2021/12/18 14:24:21;;;;;;;12.15;6.35;;;9.00;99.90;;;;;;4959354;29;20213;-69
2021/12/18 14:26:59;;;;;;;9.50;6.07;;;9.00;99.90;;;;;;4948372;29;20201;-68
2021/12/18 14:29:29;;;;;;;10.00;5.75;;;8.90;99.90;;;;;;4955030;29;20312;-68
2021/12/18 14:31:57;;;;;;;13.50;6.82;;;8.90;99.90;;;;;;4954037;28;20320;-68
2021/12/18 14:34:27;;;;;;;11.82;5.43;;;8.90;99.90;;;;;;4954545;29;20209;-68
2021/12/18 14:37:09;;;;;;;11.60;5.78;;;8.80;99.90;;;;;;4954417;29;20295;-68
2021/12/18 14:39:48;;;;;;;7.57;5.90;;;8.80;99.90;;;;;;4958415;29;20216;-69
2021/12/18 14:42:25;;;;;;;8.30;5.10;;;8.70;99.90;;;;;;4956660;28;20319;-69
2021/12/18 14:44:55;;;;;;;11.88;7.07;;;8.70;99.90;;;;;;4966038;29;20333;-69
2021/12/18 14:47:28;;;;;;;7.72;5.03;;;8.70;99.90;;;;;;4964595;29;20212;-69
2021/12/18 14:50:25;;;;;;;13.27;5.15;;;8.70;99.90;;;;;;4966140;29;20236;-69
2021/12/18 14:53:01;;;;;;;9.32;5.40;;;8.70;99.90;;;;;;4929774;28;20230;-69
2021/12/18 14:55:33;;;;;;;10.88;5.47;;;8.60;99.90;;;;;;4958032;29;20711;-68
2021/12/18 14:58:03;;;;;;;31.88;14.27;;;8.60;99.90;;;;;;4953740;29;20221;-69
2021/12/18 15:00:32;;;;;;;17.60;6.85;;;8.60;99.90;;;;;;4954362;28;20228;-68
2021/12/18 15:03:08;;;;;;;9.20;5.18;;;8.60;99.90;;;;;;4954969;29;20244;-68
2021/12/18 15:05:59;;;;;;;16.65;8.73;;;8.60;99.90;;;;;;4955062;29;20221;-71
2021/12/18 15:08:35;;;;;;;9.15;5.80;;;8.60;99.90;;;;;;4954083;29;20236;-68
2021/12/18 15:11:08;;;;;;;8.80;5.32;;;8.60;99.90;;;;;;4954168;28;20244;-69
2021/12/18 15:13:38;;;;;;;9.20;5.10;;;8.60;99.90;;;;;;4952934;29;20698;-69
2021/12/18 15:16:26;;;;;;;6.65;5.00;;;8.60;99.90;;;;;;4950231;29;20213;-68
2021/12/18 15:18:53;;;;;;;5.28;3.78;;;8.60;99.90;;;;;;4948486;29;20229;-68
2021/12/18 15:21:21;;;;;;;10.20;4.72;;;8.60;99.90;;;;;;4954207;29;20332;-68
2021/12/18 15:23:49;;;;;;;7.72;4.07;;;8.60;99.90;;;;;;4954414;29;20209;-68
2021/12/18 15:26:16;;;;;;;8.48;5.15;;;8.50;99.90;;;;;;4954380;29;20216;-68
2021/12/18 15:28:44;;;;;;;4.40;4.00;;;8.50;99.90;;;;;;4953581;28;20321;-70
2021/12/18 15:31:11;;;;;;;8.68;4.53;;;8.50;99.90;;;;;;4952665;28;20236;-70
2021/12/18 15:33:37;;;;;;;10.68;4.85;;;8.40;99.90;;;;;;4954000;29;20268;-67
2021/12/18 15:36:06;;;;;;;14.90;6.25;;;8.40;99.90;;;;;;4954174;29;20213;-69
2021/12/18 15:38:34;;;;;;;8.05;4.38;;;8.30;99.90;;;;;;4954370;28;20225;-69
2021/12/18 15:41:01;;;;;;;5.80;4.80;;;8.30;99.90;;;;;;4953015;29;20638;-69
2021/12/18 15:43:28;;;;;;;13.70;4.30;;;8.30;99.90;;;;;;4953156;29;20315;-69
2021/12/18 15:45:56;;;;;;;8.70;4.90;;;8.30;99.90;;;;;;4953841;29;20253;-69
2021/12/18 15:48:23;;;;;;;9.10;5.43;;;8.30;99.90;;;;;;4954326;29;20205;-68
2021/12/18 15:50:50;;;;;;;11.05;6.25;;;8.30;99.90;;;;;;4953554;29;20709;-68
2021/12/18 15:53:17;;;;;;;12.35;7.15;;;8.20;99.90;;;;;;4953007;29;20220;-67
2021/12/18 15:55:45;;;;;;;20.17;11.65;;;8.20;99.90;;;;;;4949515;29;20205;-68
2021/12/18 15:58:12;;;;;;;13.02;6.85;;;8.10;99.90;;;;;;4951543;29;20717;-68
2021/12/18 16:00:41;;;;;;;17.13;5.50;;;8.10;99.90;;;;;;4952598;28;20311;-68
2021/12/18 16:03:09;;;;;;;8.13;5.85;;;8.10;99.90;;;;;;4953078;29;20351;-70
2021/12/18 16:05:38;;;;;;;10.65;5.05;;;8.10;99.90;;;;;;4952668;29;20276;-68
2021/12/18 16:08:08;;;;;;;6.38;5.47;;;8.00;99.90;;;;;;4952491;29;20405;-69
2021/12/18 16:10:36;;;;;;;11.63;5.85;;;8.00;99.90;;;;;;4952260;28;20712;-69
2021/12/18 16:13:04;;;;;;;14.70;4.70;;;8.00;99.90;;;;;;4951885;29;20217;-69
2021/12/18 16:15:31;;;;;;;30.20;27.13;;;8.00;99.90;;;;;;4953534;29;20223;-69
2021/12/18 16:17:58;;;;;;;10.63;6.32;;;7.90;99.90;;;;;;4953116;29;20232;-70
2021/12/18 16:20:25;;;;;;;11.27;5.97;;;7.90;99.90;;;;;;4952170;28;20309;-68
2021/12/18 16:22:52;;;;;;;22.50;8.05;;;7.90;99.90;;;;;;4952257;29;20298;-68
2021/12/18 16:25:20;;;;;;;14.57;7.13;;;7.90;99.90;;;;;;4952306;29;20316;-69
2021/12/18 16:27:47;;;;;;;9.38;5.32;;;7.80;99.90;;;;;;4951356;29;20658;-69
2021/12/18 16:30:15;;;;;;;12.70;5.20;;;7.90;99.90;;;;;;4953135;28;20213;-68
2021/12/18 16:32:42;;;;;;;8.15;4.55;;;7.90;99.90;;;;;;4952775;29;20209;-69
2021/12/18 16:35:11;;;;;;;10.98;4.60;;;7.90;99.90;;;;;;4952233;29;20237;-69
2021/12/18 16:37:40;;;;;;;12.02;5.40;;;7.80;99.90;;;;;;4952434;29;20295;-69
2021/12/18 16:40:08;;;;;;;8.10;5.22;;;7.80;99.90;;;;;;4951919;28;20308;-67
2021/12/18 16:42:35;;;;;;;11.10;6.75;;;7.80;99.90;;;;;;4950747;28;20280;-68
2021/12/18 16:45:02;;;;;;;15.85;6.40;;;7.80;99.90;;;;;;4950378;29;20209;-68
2021/12/18 16:47:31;;;;;;;11.10;6.40;;;7.80;99.90;;;;;;4952019;29;20197;-68
2021/12/18 16:49:57;;;;;;;10.10;6.32;;;7.80;99.90;;;;;;4951644;29;20284;-67
2021/12/18 16:52:26;;;;;;;10.05;4.80;;;7.80;99.90;;;;;;4951526;28;20808;-67
2021/12/18 16:54:53;;;;;;;8.63;5.13;;;7.80;99.90;;;;;;4952716;29;20658;-67
2021/12/18 16:57:21;;;;;;;7.85;4.93;;;7.80;99.90;;;;;;4951163;29;20251;-66
2021/12/18 16:59:49;;;;;;;15.88;5.20;;;7.80;99.90;;;;;;4952581;29;20701;-69
2021/12/18 17:02:15;;;;;;;9.30;5.57;;;7.80;99.90;;;;;;4952263;28;20252;-68
2021/12/18 17:04:46;;;;;;;14.20;7.03;;;7.80;99.90;;;;;;4952019;29;20218;-68
2021/12/18 17:07:14;;;;;;;19.60;5.60;;;7.80;99.90;;;;;;4951684;29;20896;-68
2021/12/18 17:09:41;;;;;;;12.65;5.60;;;7.80;99.90;;;;;;4952035;29;20216;-67
2021/12/18 17:12:09;;;;;;;18.73;7.45;;;7.70;99.90;;;;;;4950727;28;20316;-68
2021/12/18 17:14:36;;;;;;;10.15;6.57;;;7.80;99.90;;;;;;4952428;28;20620;-69
2021/12/18 17:17:03;;;;;;;12.68;6.45;;;7.80;99.90;;;;;;4947691;29;20217;-68
2021/12/18 17:19:29;;;;;;;6.05;5.03;;;7.90;99.90;;;;;;4951729;28;20229;-68
2021/12/18 17:21:57;;;;;;;13.80;6.57;;;7.80;99.90;;;;;;4951616;28;20233;-68
2021/12/18 17:24:24;;;;;;;20.35;8.55;;;7.90;99.90;;;;;;4952074;29;20209;-68
2021/12/18 17:26:51;;;;;;;17.00;7.03;;;7.90;99.90;;;;;;4951085;29;20217;-68
2021/12/18 17:29:18;;;;;;;12.43;7.63;;;7.90;99.90;;;;;;4954469;28;20206;-70
2021/12/18 17:31:45;;;;;;;11.32;6.53;;;7.90;99.90;;;;;;4952899;28;20244;-69
2021/12/18 17:34:12;;;;;;;13.10;5.95;;;7.90;99.90;;;;;;4953735;29;20288;-68
2021/12/18 17:36:38;;;;;;;17.02;5.63;;;7.90;99.90;;;;;;4953882;28;20573;-68
2021/12/18 17:39:07;;;;;;;8.15;5.25;;;7.90;99.90;;;;;;4951995;28;20260;-68
2021/12/18 17:41:33;;;;;;;15.32;5.78;;;8.00;99.90;;;;;;4951473;28;20964;-69
2021/12/18 17:44:01;;;;;;;14.55;5.65;;;8.00;99.90;;;;;;4951186;29;20218;-68
2021/12/18 17:46:28;;;;;;;9.50;4.88;;;8.00;99.90;;;;;;4951928;29;20299;-70
2021/12/18 17:48:55;;;;;;;12.77;4.90;;;8.00;99.90;;;;;;4952219;29;20629;-68
2021/12/18 17:51:21;;;;;;;11.88;5.35;;;8.10;99.90;;;;;;4951232;28;20233;-69
2021/12/18 17:53:48;;;;;;;17.88;6.40;;;8.10;99.90;;;;;;4951853;28;20209;-69
2021/12/18 17:56:16;;;;;;;9.40;5.90;;;8.10;99.90;;;;;;4956547;28;20209;-68
2021/12/18 17:58:45;;;;;;;16.25;6.70;;;8.10;99.90;;;;;;4956010;29;20221;-69
2021/12/18 18:01:12;;;;;;;10.52;4.25;;;8.20;99.90;;;;;;4956271;28;20665;-69
2021/12/18 18:03:39;;;;;;;12.57;5.82;;;8.20;99.90;;;;;;4956699;28;20567;-70
2021/12/18 18:06:06;;;;;;;9.55;5.22;;;8.20;99.90;;;;;;4954723;29;20206;-69
2021/12/18 18:08:32;;;;;;;13.10;6.43;;;8.20;99.90;;;;;;4956666;29;20470;-69